sensor_id;sensor_type;location;lat;lon;timestamp;pressure;altitude;pressure_sealevel;temperature;humidity
19843;BME280;10082;51.038;6.992;2023-04-03T00:00:22;63306.78;;;-144.33;100.00
19843;BME280;10082;51.038;6.992;2023-04-03T00:02:49;61893.06;;;-144.33;100.00
19843;BME280;10082;51.038;6.992;2023-04-03T00:05:16;60064.50;;;-144.33;100.00
19843;BME280;10082;51.038;6.992;2023-04-03T00:07:44;58679.75;;;-144.33;100.00
19843;BME280;10082;51.038;6.992;2023-04-03T00:10:12;57756.16;;;-144.33;100.00
19843;BME280;10082;51.038;6.992;2023-04-03T00:12:40;56735.53;;;-144.33;100.00
19843;BME280;10082;51.038;6.992;2023-04-03T00:15:11;55084.00;;;-144.33;100.00
19843;BME280;10082;51.038;6.992;2023-04-03T00:17:38;53534.31;;;-144.33;100.00
19843;BME280;10082;51.038;6.992;2023-04-03T00:20:06;51471.69;;;-144.33;100.00
19843;BME280;10082;51.038;6.992;2023-04-03T00:22:33;49677.66;;;-144.33;100.00
19843;BME280;10082;51.038;6.992;2023-04-03T00:25:01;48326.25;;;-144.33;100.00
19843;BME280;10082;51.038;6.992;2023-04-03T00:27:28;46545.53;;;-144.33;100.00
19843;BME280;10082;51.038;6.992;2023-04-03T00:29:56;45220.91;;;-144.33;100.00
19843;BME280;10082;51.038;6.992;2023-04-03T00:32:25;43993.72;;;-144.33;100.00
19843;BME280;10082;51.038;6.992;2023-04-03T00:34:52;43115.13;;;-144.33;100.00
19843;BME280;10082;51.038;6.992;2023-04-03T00:37:20;41959.78;;;-144.33;100.00
19843;BME280;10082;51.038;6.992;2023-04-03T00:39:47;40735.59;;;-144.33;100.00
19843;BME280;10082;51.038;6.992;2023-04-03T00:42:16;39545.38;;;-144.33;100.00
19843;BME280;10082;51.038;6.992;2023-04-03T00:47:56;37509.78;;;-144.33;100.00
19843;BME280;10082;51.038;6.992;2023-04-03T00:50:26;36484.50;;;-144.33;100.00
19843;BME280;10082;51.038;6.992;2023-04-03T00:52:56;35058.63;;;-144.33;100.00
19843;BME280;10082;51.038;6.992;2023-04-03T00:55:23;34195.84;;;-144.33;100.00
19843;BME280;10082;51.038;6.992;2023-04-03T00:57:51;33497.06;;;-144.33;100.00
19843;BME280;10082;51.038;6.992;2023-04-03T01:00:20;32228.13;;;-144.33;100.00
19843;BME280;10082;51.038;6.992;2023-04-03T01:02:52;31529.72;;;-144.33;100.00
19843;BME280;10082;51.038;6.992;2023-04-03T01:05:21;30251.56;;;-144.33;100.00
19843;BME280;10082;51.038;6.992;2023-04-03T01:07:50;28827.94;;;-144.33;100.00
19843;BME280;10082;51.038;6.992;2023-04-03T01:10:19;27952.72;;;-144.33;100.00
19843;BME280;10082;51.038;6.992;2023-04-03T01:12:48;27117.13;;;-144.33;100.00
19843;BME280;10082;51.038;6.992;2023-04-03T01:15:18;26468.88;;;-144.33;100.00
19843;BME280;10082;51.038;6.992;2023-04-03T01:17:47;25984.22;;;-144.33;100.00
19843;BME280;10082;51.038;6.992;2023-04-03T01:20:40;24975.72;;;-144.33;100.00
19843;BME280;10082;51.038;6.992;2023-04-03T01:23:23;24282.53;;;-144.33;100.00
19843;BME280;10082;51.038;6.992;2023-04-03T01:25:54;23428.03;;;-144.33;100.00
19843;BME280;10082;51.038;6.992;2023-04-03T01:28:24;22886.69;;;-144.33;100.00
19843;BME280;10082;51.038;6.992;2023-04-03T01:30:59;22201.75;;;-144.33;100.00
19843;BME280;10082;51.038;6.992;2023-04-03T01:33:33;22054.13;;;-144.33;100.00
19843;BME280;10082;51.038;6.992;2023-04-03T01:36:01;21322.13;;;-144.33;100.00
19843;BME280;10082;51.038;6.992;2023-04-03T01:38:29;20885.31;;;-144.33;100.00
19843;BME280;10082;51.038;6.992;2023-04-03T01:40:56;21062.41;;;-144.33;100.00
19843;BME280;10082;51.038;6.992;2023-04-03T01:43:33;20403.34;;;-144.33;100.00
19843;BME280;10082;51.038;6.992;2023-04-03T01:46:01;19809.31;;;-144.33;100.00
19843;BME280;10082;51.038;6.992;2023-04-03T01:48:28;19846.69;;;-144.33;100.00
19843;BME280;10082;51.038;6.992;2023-04-03T01:50:57;19443.50;;;-144.33;100.00
19843;BME280;10082;51.038;6.992;2023-04-03T01:53:25;19376.63;;;-144.33;100.00
19843;BME280;10082;51.038;6.992;2023-04-03T01:55:53;19671.63;;;-144.33;100.00
19843;BME280;10082;51.038;6.992;2023-04-03T01:58:20;19349.09;;;-144.33;100.00
19843;BME280;10082;51.038;6.992;2023-04-03T02:00:52;18706.06;;;-144.33;100.00
19843;BME280;10082;51.038;6.992;2023-04-03T02:03:20;18521.22;;;-144.33;100.00
19843;BME280;10082;51.038;6.992;2023-04-03T02:05:52;18204.69;;;-144.33;100.00
19843;BME280;10082;51.038;6.992;2023-04-03T02:08:21;18287.25;;;-144.33;100.00
19843;BME280;10082;51.038;6.992;2023-04-03T02:10:49;17874.41;;;-144.33;100.00
19843;BME280;10082;51.038;6.992;2023-04-03T02:13:17;17548.06;;;-144.33;100.00
19843;BME280;10082;51.038;6.992;2023-04-03T02:15:45;17713.19;;;-144.33;100.00
19843;BME280;10082;51.038;6.992;2023-04-03T02:18:16;17524.50;;;-144.33;100.00
19843;BME280;10082;51.038;6.992;2023-04-03T02:20:44;17585.44;;;-144.33;100.00
19843;BME280;10082;51.038;6.992;2023-04-03T02:23:15;17345.63;;;-144.33;100.00
19843;BME280;10082;51.038;6.992;2023-04-03T02:25:44;16913.19;;;-144.33;100.00
19843;BME280;10082;51.038;6.992;2023-04-03T02:28:17;16858.16;;;-144.33;100.00
19843;BME280;10082;51.038;6.992;2023-04-03T02:30:44;16738.28;;;-144.33;100.00
19843;BME280;10082;51.038;6.992;2023-04-03T02:33:12;16370.78;;;-144.33;100.00
19843;BME280;10082;51.038;6.992;2023-04-03T02:35:40;15072.06;;;-144.33;100.00
19843;BME280;10082;51.038;6.992;2023-04-03T02:38:07;14712.59;;;-144.33;100.00
19843;BME280;10082;51.038;6.992;2023-04-03T02:40:35;15013.13;;;-144.33;100.00
19843;BME280;10082;51.038;6.992;2023-04-03T02:43:03;15272.44;;;-144.33;100.00
19843;BME280;10082;51.038;6.992;2023-04-03T02:45:38;14514.19;;;-144.33;100.00
19843;BME280;10082;51.038;6.992;2023-04-03T02:48:06;14154.75;;;-144.33;100.00
19843;BME280;10082;51.038;6.992;2023-04-03T02:50:34;14219.56;;;-144.33;100.00
19843;BME280;10082;51.038;6.992;2023-04-03T02:53:02;15083.84;;;-144.33;100.00
19843;BME280;10082;51.038;6.992;2023-04-03T02:55:29;14840.25;;;-144.33;100.00
19843;BME280;10082;51.038;6.992;2023-04-03T02:57:56;14742.03;;;-144.33;100.00
19843;BME280;10082;51.038;6.992;2023-04-03T03:00:25;14469.03;;;-144.33;100.00
19843;BME280;10082;51.038;6.992;2023-04-03T03:02:53;14956.16;;;-144.33;100.00
19843;BME280;10082;51.038;6.992;2023-04-03T03:05:20;14260.81;;;-144.33;100.00
19843;BME280;10082;51.038;6.992;2023-04-03T03:07:48;14789.19;;;-144.33;100.00
19843;BME280;10082;51.038;6.992;2023-04-03T03:10:15;14675.25;;;-144.33;100.00
19843;BME280;10082;51.038;6.992;2023-04-03T03:12:44;14832.41;;;-144.33;100.00
19843;BME280;10082;51.038;6.992;2023-04-03T03:15:12;14775.44;;;-144.33;100.00
19843;BME280;10082;51.038;6.992;2023-04-03T03:17:43;14637.94;;;-144.33;100.00
19843;BME280;10082;51.038;6.992;2023-04-03T03:20:12;14687.03;;;-144.33;100.00
19843;BME280;10082;51.038;6.992;2023-04-03T03:22:41;14745.97;;;-144.33;100.00
19843;BME280;10082;51.038;6.992;2023-04-03T03:25:11;14616.34;;;-144.33;100.00
19843;BME280;10082;51.038;6.992;2023-04-03T03:27:39;14964.03;;;-144.33;100.00
19843;BME280;10082;51.038;6.992;2023-04-03T03:30:07;15119.22;;;-144.33;100.00
19843;BME280;10082;51.038;6.992;2023-04-03T03:32:35;15891.31;;;-144.33;100.00
19843;BME280;10082;51.038;6.992;2023-04-03T03:35:05;16101.56;;;-144.33;100.00
19843;BME280;10082;51.038;6.992;2023-04-03T03:37:32;16406.16;;;-144.33;100.00
19843;BME280;10082;51.038;6.992;2023-04-03T03:40:01;17121.53;;;-144.33;100.00
19843;BME280;10082;51.038;6.992;2023-04-03T03:42:30;17787.91;;;-144.33;100.00
19843;BME280;10082;51.038;6.992;2023-04-03T03:44:57;18230.25;;;-144.33;100.00
19843;BME280;10082;51.038;6.992;2023-04-03T03:47:25;18664.75;;;-144.33;100.00
19843;BME280;10082;51.038;6.992;2023-04-03T03:49:52;19374.66;;;-144.33;100.00
19843;BME280;10082;51.038;6.992;2023-04-03T03:52:25;20600.06;;;-144.33;100.00
19843;BME280;10082;51.038;6.992;2023-04-03T03:54:53;20895.16;;;-144.33;100.00
19843;BME280;10082;51.038;6.992;2023-04-03T03:57:21;20700.41;;;-144.33;100.00
19843;BME280;10082;51.038;6.992;2023-04-03T03:59:49;20944.34;;;-144.33;100.00
19843;BME280;10082;51.038;6.992;2023-04-03T04:02:18;21997.06;;;-144.33;100.00
19843;BME280;10082;51.038;6.992;2023-04-03T04:04:46;23158.34;;;-144.33;100.00
19843;BME280;10082;51.038;6.992;2023-04-03T04:07:14;23737.13;;;-144.33;100.00
19843;BME280;10082;51.038;6.992;2023-04-03T04:09:43;25048.59;;;-144.33;100.00
19843;BME280;10082;51.038;6.992;2023-04-03T04:12:11;26533.91;;;-144.33;100.00
19843;BME280;10082;51.038;6.992;2023-04-03T04:14:42;27988.22;;;-144.33;100.00
19843;BME280;10082;51.038;6.992;2023-04-03T04:17:12;29965.63;;;-144.33;100.00
19843;BME280;10082;51.038;6.992;2023-04-03T04:19:40;31314.69;;;-144.33;100.00
19843;BME280;10082;51.038;6.992;2023-04-03T04:22:08;32978.00;;;-144.33;100.00
19843;BME280;10082;51.038;6.992;2023-04-03T04:24:35;34486.03;;;-144.33;100.00
19843;BME280;10082;51.038;6.992;2023-04-03T04:27:04;36913.16;;;-144.33;100.00
19843;BME280;10082;51.038;6.992;2023-04-03T04:29:34;39084.81;;;-144.33;100.00
19843;BME280;10082;51.038;6.992;2023-04-03T04:32:04;40019.84;;;-144.33;100.00
19843;BME280;10082;51.038;6.992;2023-04-03T04:34:32;40881.94;;;-144.33;100.00
19843;BME280;10082;51.038;6.992;2023-04-03T04:37:00;40895.75;;;-144.33;100.00
19843;BME280;10082;51.038;6.992;2023-04-03T04:39:28;41674.97;;;-144.33;100.00
19843;BME280;10082;51.038;6.992;2023-04-03T04:41:57;41671.00;;;-144.33;100.00
19843;BME280;10082;51.038;6.992;2023-04-03T04:44:30;41071.75;;;-144.33;100.00
19843;BME280;10082;51.038;6.992;2023-04-03T04:46:58;41562.22;;;-144.33;100.00
19843;BME280;10082;51.038;6.992;2023-04-03T04:49:25;41394.13;;;-144.33;100.00
19843;BME280;10082;51.038;6.992;2023-04-03T04:52:05;42027.06;;;-144.33;100.00
19843;BME280;10082;51.038;6.992;2023-04-03T04:54:33;43439.63;;;-144.33;100.00
19843;BME280;10082;51.038;6.992;2023-04-03T04:57:01;45147.69;;;-144.33;100.00
19843;BME280;10082;51.038;6.992;2023-04-03T04:59:31;46840.63;;;-144.33;100.00
19843;BME280;10082;51.038;6.992;2023-04-03T05:01:58;48801.75;;;-144.33;100.00
19843;BME280;10082;51.038;6.992;2023-04-03T05:04:26;50888.78;;;-144.33;100.00
19843;BME280;10082;51.038;6.992;2023-04-03T05:06:59;53433.16;;;-144.33;100.00
19843;BME280;10082;51.038;6.992;2023-04-03T05:09:29;55266.59;;;-144.33;100.00
19843;BME280;10082;51.038;6.992;2023-04-03T05:11:57;57293.47;;;-144.33;100.00
19843;BME280;10082;51.038;6.992;2023-04-03T05:14:28;59478.34;;;-144.33;100.00
19843;BME280;10082;51.038;6.992;2023-04-03T05:17:03;60887.25;;;-144.33;100.00
19843;BME280;10082;51.038;6.992;2023-04-03T05:19:33;62590.91;;;-144.33;100.00
19843;BME280;10082;51.038;6.992;2023-04-03T05:22:02;63813.94;;;-144.33;100.00
19843;BME280;10082;51.038;6.992;2023-04-03T05:24:29;64665.31;;;-144.33;100.00
19843;BME280;10082;51.038;6.992;2023-04-03T05:26:57;65636.25;;;-144.33;100.00
19843;BME280;10082;51.038;6.992;2023-04-03T05:29:25;65397.47;;;-144.33;100.00
19843;BME280;10082;51.038;6.992;2023-04-03T05:31:54;65594.47;;;-144.33;100.00
19843;BME280;10082;51.038;6.992;2023-04-03T05:34:26;66613.41;;;-144.33;100.00
19843;BME280;10082;51.038;6.992;2023-04-03T05:36:55;67331.97;;;-144.33;100.00
19843;BME280;10082;51.038;6.992;2023-04-03T05:39:24;67765.97;;;-144.33;100.00
19843;BME280;10082;51.038;6.992;2023-04-03T05:41:52;67407.63;;;-144.33;100.00
19843;BME280;10082;51.038;6.992;2023-04-03T05:44:19;68048.72;;;-144.33;100.00
19843;BME280;10082;51.038;6.992;2023-04-03T05:46:48;69472.59;;;-144.33;100.00
19843;BME280;10082;51.038;6.992;2023-04-03T05:49:16;70769.47;;;-144.33;100.00
19843;BME280;10082;51.038;6.992;2023-04-03T05:51:46;71859.47;;;-144.33;100.00
19843;BME280;10082;51.038;6.992;2023-04-03T05:54:24;74066.31;;;-144.33;100.00
19843;BME280;10082;51.038;6.992;2023-04-03T05:57:06;75689.81;;;-144.33;100.00
19843;BME280;10082;51.038;6.992;2023-04-03T05:59:33;76944.81;;;-144.33;100.00
19843;BME280;10082;51.038;6.992;2023-04-03T06:02:00;77122.41;;;-144.33;100.00
19843;BME280;10082;51.038;6.992;2023-04-03T06:04:31;76783.19;;;-144.33;100.00
19843;BME280;10082;51.038;6.992;2023-04-03T06:07:00;78908.88;;;-144.33;100.00
19843;BME280;10082;51.038;6.992;2023-04-03T06:09:28;80808.00;;;-144.33;100.00
19843;BME280;10082;51.038;6.992;2023-04-03T06:11:56;80806.00;;;-144.33;100.00
19843;BME280;10082;51.038;6.992;2023-04-03T06:14:24;80899.88;;;-144.33;100.00
19843;BME280;10082;51.038;6.992;2023-04-03T06:16:52;80887.91;;;-144.33;100.00
19843;BME280;10082;51.038;6.992;2023-04-03T06:19:20;83585.41;;;-144.33;100.00
19843;BME280;10082;51.038;6.992;2023-04-03T06:21:50;85384.75;;;-144.33;100.00
19843;BME280;10082;51.038;6.992;2023-04-03T06:24:19;87799.13;;;-144.33;100.00
19843;BME280;10082;51.038;6.992;2023-04-03T06:26:47;90699.50;;;-144.33;100.00
19843;BME280;10082;51.038;6.992;2023-04-03T06:29:16;93339.47;;;-144.33;100.00
19843;BME280;10082;51.038;6.992;2023-04-03T06:31:44;96654.91;;;-144.33;100.00
19843;BME280;10082;51.038;6.992;2023-04-03T06:34:12;101056.94;;;-144.33;100.00
19843;BME280;10082;51.038;6.992;2023-04-03T06:36:39;104993.53;;;-144.33;100.00
19843;BME280;10082;51.038;6.992;2023-04-03T06:39:08;110575.56;;;-144.33;100.00
19843;BME280;10082;51.038;6.992;2023-04-03T06:41:37;112171.53;;;-144.33;100.00
19843;BME280;10082;51.038;6.992;2023-04-03T06:44:06;112171.53;;;-144.33;100.00
19843;BME280;10082;51.038;6.992;2023-04-03T06:46:37;112171.53;;;-144.33;100.00
19843;BME280;10082;51.038;6.992;2023-04-03T06:49:08;112171.53;;;-144.33;100.00
19843;BME280;10082;51.038;6.992;2023-04-03T06:51:48;112171.53;;;-144.33;100.00
19843;BME280;10082;51.038;6.992;2023-04-03T06:54:17;112171.53;;;-144.33;100.00
19843;BME280;10082;51.038;6.992;2023-04-03T06:56:51;112171.53;;;-144.33;100.00
19843;BME280;10082;51.038;6.992;2023-04-03T06:59:25;112171.53;;;-144.33;100.00
19843;BME280;10082;51.038;6.992;2023-04-03T07:01:52;112171.53;;;-144.33;100.00
19843;BME280;10082;51.038;6.992;2023-04-03T07:04:23;112171.53;;;-144.33;100.00
19843;BME280;10082;51.038;6.992;2023-04-03T07:06:50;112171.53;;;-144.33;100.00
19843;BME280;10082;51.038;6.992;2023-04-03T07:09:20;112171.53;;;-144.33;100.00
19843;BME280;10082;51.038;6.992;2023-04-03T07:11:50;112171.53;;;-144.33;100.00
19843;BME280;10082;51.038;6.992;2023-04-03T07:14:18;112171.53;;;-144.33;100.00
19843;BME280;10082;51.038;6.992;2023-04-03T07:16:47;112171.53;;;-144.33;100.00
19843;BME280;10082;51.038;6.992;2023-04-03T07:19:14;112171.53;;;-144.33;100.00
19843;BME280;10082;51.038;6.992;2023-04-03T07:21:41;112171.53;;;-144.33;100.00
19843;BME280;10082;51.038;6.992;2023-04-03T07:24:09;112171.53;;;-144.33;100.00
19843;BME280;10082;51.038;6.992;2023-04-03T07:26:36;112171.53;;;-144.33;92.95
19843;BME280;10082;51.038;6.992;2023-04-03T07:29:05;112171.53;;;-144.33;89.88
19843;BME280;10082;51.038;6.992;2023-04-03T07:31:32;112171.53;;;-144.33;84.95
19843;BME280;10082;51.038;6.992;2023-04-03T07:34:00;112171.53;;;-144.33;80.89
19843;BME280;10082;51.038;6.992;2023-04-03T07:36:30;112171.53;;;-144.33;77.60
19843;BME280;10082;51.038;6.992;2023-04-03T07:38:59;112171.53;;;-144.33;73.07
19843;BME280;10082;51.038;6.992;2023-04-03T07:41:26;112171.53;;;-144.33;69.60
19843;BME280;10082;51.038;6.992;2023-04-03T07:43:54;112171.53;;;-144.33;66.82
19843;BME280;10082;51.038;6.992;2023-04-03T07:46:23;112171.53;;;-144.33;64.39
19843;BME280;10082;51.038;6.992;2023-04-03T07:48:51;112171.53;;;-144.33;64.99
19843;BME280;10082;51.038;6.992;2023-04-03T07:51:19;112171.53;;;-144.33;60.77
19843;BME280;10082;51.038;6.992;2023-04-03T07:53:47;112171.53;;;-144.33;61.94
19843;BME280;10082;51.038;6.992;2023-04-03T07:56:18;112171.53;;;-144.33;60.29
19843;BME280;10082;51.038;6.992;2023-04-03T07:58:46;112171.53;;;-144.33;60.68
19843;BME280;10082;51.038;6.992;2023-04-03T08:01:14;112171.53;;;-144.33;59.13
19843;BME280;10082;51.038;6.992;2023-04-03T08:03:42;112171.53;;;-144.33;60.06
19843;BME280;10082;51.038;6.992;2023-04-03T08:06:10;112171.53;;;-144.33;59.15
19843;BME280;10082;51.038;6.992;2023-04-03T08:08:39;112171.53;;;-144.33;57.29
19843;BME280;10082;51.038;6.992;2023-04-03T08:11:06;112171.53;;;-144.33;57.89
19843;BME280;10082;51.038;6.992;2023-04-03T08:13:34;112171.53;;;-144.33;57.05
19843;BME280;10082;51.038;6.992;2023-04-03T08:16:08;112171.53;;;-144.33;57.46
19843;BME280;10082;51.038;6.992;2023-04-03T08:18:37;112171.53;;;-144.33;56.63
19843;BME280;10082;51.038;6.992;2023-04-03T08:21:09;112171.53;;;-144.33;53.18
19843;BME280;10082;51.038;6.992;2023-04-03T08:23:37;112171.53;;;-144.33;55.10
19843;BME280;10082;51.038;6.992;2023-04-03T08:26:08;112171.53;;;-144.33;54.28
19843;BME280;10082;51.038;6.992;2023-04-03T08:28:36;112171.53;;;-144.33;51.90
19843;BME280;10082;51.038;6.992;2023-04-03T08:31:04;112171.53;;;-144.33;51.52
19843;BME280;10082;51.038;6.992;2023-04-03T08:33:33;112171.53;;;-144.33;48.32
19843;BME280;10082;51.038;6.992;2023-04-03T08:36:02;112171.53;;;-144.33;47.21
19843;BME280;10082;51.038;6.992;2023-04-03T08:38:32;112171.53;;;-144.33;46.44
19843;BME280;10082;51.038;6.992;2023-04-03T08:41:06;112171.53;;;-144.33;45.46
19843;BME280;10082;51.038;6.992;2023-04-03T08:43:52;112171.53;;;-144.33;43.87
19843;BME280;10082;51.038;6.992;2023-04-03T08:46:22;112171.53;;;-144.33;42.43
19843;BME280;10082;51.038;6.992;2023-04-03T08:48:54;112171.53;;;-144.33;41.71
19843;BME280;10082;51.038;6.992;2023-04-03T08:51:23;112171.53;;;-144.33;41.81
19843;BME280;10082;51.038;6.992;2023-04-03T08:53:56;112171.53;;;-144.33;44.29
19843;BME280;10082;51.038;6.992;2023-04-03T08:56:28;112171.53;;;-144.33;41.83
19843;BME280;10082;51.038;6.992;2023-04-03T08:59:03;112171.53;;;-144.33;43.44
19843;BME280;10082;51.038;6.992;2023-04-03T09:01:35;112171.53;;;-144.33;42.74
19843;BME280;10082;51.038;6.992;2023-04-03T09:04:10;112171.53;;;-144.33;40.59
19843;BME280;10082;51.038;6.992;2023-04-03T09:06:43;112171.53;;;-144.33;42.19
19843;BME280;10082;51.038;6.992;2023-04-03T09:09:25;112171.53;;;-144.33;43.47
19843;BME280;10082;51.038;6.992;2023-04-03T09:12:04;112171.53;;;-144.33;41.33
19843;BME280;10082;51.038;6.992;2023-04-03T09:14:44;112171.53;;;-144.33;41.10
19843;BME280;10082;51.038;6.992;2023-04-03T09:17:36;112171.53;;;-144.33;40.95
19843;BME280;10082;51.038;6.992;2023-04-03T09:20:16;112171.53;;;-144.33;39.18
19843;BME280;10082;51.038;6.992;2023-04-03T09:22:45;112171.53;;;-144.33;36.62
19843;BME280;10082;51.038;6.992;2023-04-03T09:25:19;112171.53;;;-144.33;36.90
19843;BME280;10082;51.038;6.992;2023-04-03T09:27:48;112171.53;;;-144.33;37.21
19843;BME280;10082;51.038;6.992;2023-04-03T09:30:21;112171.53;;;-144.33;36.36
19843;BME280;10082;51.038;6.992;2023-04-03T09:32:50;112171.53;;;-144.33;36.25
19843;BME280;10082;51.038;6.992;2023-04-03T09:35:23;112171.53;;;-144.33;36.42
19843;BME280;10082;51.038;6.992;2023-04-03T09:37:53;112171.53;;;-144.33;35.79
19843;BME280;10082;51.038;6.992;2023-04-03T09:40:34;112171.53;;;-144.33;36.54
19843;BME280;10082;51.038;6.992;2023-04-03T09:43:25;112171.53;;;-144.33;36.24
19843;BME280;10082;51.038;6.992;2023-04-03T09:45:53;112171.53;;;-144.33;37.77
19843;BME280;10082;51.038;6.992;2023-04-03T09:48:22;112171.53;;;-144.33;37.09
19843;BME280;10082;51.038;6.992;2023-04-03T09:50:58;112171.53;;;-144.33;37.54
19843;BME280;10082;51.038;6.992;2023-04-03T09:53:32;112171.53;;;-144.33;36.67
19843;BME280;10082;51.038;6.992;2023-04-03T09:56:21;112171.53;;;-144.33;37.54
19843;BME280;10082;51.038;6.992;2023-04-03T09:58:50;112171.53;;;-144.33;36.85
19843;BME280;10082;51.038;6.992;2023-04-03T10:01:27;112171.53;;;-144.33;36.50
19843;BME280;10082;51.038;6.992;2023-04-03T10:04:08;112171.53;;;-144.33;37.17
19843;BME280;10082;51.038;6.992;2023-04-03T10:06:38;112171.53;;;-144.33;37.12
19843;BME280;10082;51.038;6.992;2023-04-03T10:09:18;112171.53;;;-144.33;36.83
19843;BME280;10082;51.038;6.992;2023-04-03T10:12:00;112171.53;;;-144.33;36.52
19843;BME280;10082;51.038;6.992;2023-04-03T10:14:31;112171.53;;;-144.33;36.82
19843;BME280;10082;51.038;6.992;2023-04-03T10:17:04;112171.53;;;-144.33;35.83
19843;BME280;10082;51.038;6.992;2023-04-03T10:19:36;112171.53;;;-144.33;35.34
19843;BME280;10082;51.038;6.992;2023-04-03T10:22:20;112171.53;;;-144.33;34.82
19843;BME280;10082;51.038;6.992;2023-04-03T10:25:00;112171.53;;;-144.33;34.14
19843;BME280;10082;51.038;6.992;2023-04-03T10:27:50;112171.53;;;-144.33;34.67
19843;BME280;10082;51.038;6.992;2023-04-03T10:30:28;112171.53;;;-144.33;34.95
19843;BME280;10082;51.038;6.992;2023-04-03T10:33:13;112171.53;;;-144.33;34.23
19843;BME280;10082;51.038;6.992;2023-04-03T10:35:52;112171.53;;;-144.33;34.14
19843;BME280;10082;51.038;6.992;2023-04-03T10:38:30;112171.53;;;-144.33;32.98
19843;BME280;10082;51.038;6.992;2023-04-03T10:41:05;112171.53;;;-144.33;33.39
19843;BME280;10082;51.038;6.992;2023-04-03T10:43:41;112171.53;;;-144.33;34.01
19843;BME280;10082;51.038;6.992;2023-04-03T10:46:13;112171.53;;;-144.33;33.55
19843;BME280;10082;51.038;6.992;2023-04-03T10:49:05;112171.53;;;-144.33;33.78
19843;BME280;10082;51.038;6.992;2023-04-03T10:51:41;112171.53;;;-144.33;33.25
19843;BME280;10082;51.038;6.992;2023-04-03T10:54:13;112171.53;;;-144.33;32.84
19843;BME280;10082;51.038;6.992;2023-04-03T10:56:48;112171.53;;;-144.33;31.49
19843;BME280;10082;51.038;6.992;2023-04-03T10:59:26;112171.53;;;-144.33;31.40
19843;BME280;10082;51.038;6.992;2023-04-03T11:01:58;112171.53;;;-144.33;30.51
19843;BME280;10082;51.038;6.992;2023-04-03T11:04:30;112171.53;;;-144.33;32.19
19843;BME280;10082;51.038;6.992;2023-04-03T11:07:10;112171.53;;;-144.33;31.47
19843;BME280;10082;51.038;6.992;2023-04-03T11:09:41;112171.53;;;-144.33;31.18
19843;BME280;10082;51.038;6.992;2023-04-03T11:12:15;112171.53;;;-144.33;30.53
19843;BME280;10082;51.038;6.992;2023-04-03T11:14:52;112171.53;;;-144.33;30.77
19843;BME280;10082;51.038;6.992;2023-04-03T11:17:30;112171.53;;;-144.33;30.67
19843;BME280;10082;51.038;6.992;2023-04-03T11:20:08;112171.53;;;-144.33;30.71
19843;BME280;10082;51.038;6.992;2023-04-03T11:22:43;112171.53;;;-144.33;30.37
19843;BME280;10082;51.038;6.992;2023-04-03T11:25:19;112171.53;;;-144.33;31.01
19843;BME280;10082;51.038;6.992;2023-04-03T11:27:52;112171.53;;;-144.33;30.73
19843;BME280;10082;51.038;6.992;2023-04-03T11:30:26;112171.53;;;-144.33;30.24
19843;BME280;10082;51.038;6.992;2023-04-03T11:33:28;112171.53;;;-144.33;29.19
19843;BME280;10082;51.038;6.992;2023-04-03T11:36:00;112171.53;;;-144.33;29.40
19843;BME280;10082;51.038;6.992;2023-04-03T11:38:35;112171.53;;;-144.33;29.37
19843;BME280;10082;51.038;6.992;2023-04-03T11:41:07;112171.53;;;-144.33;28.95
19843;BME280;10082;51.038;6.992;2023-04-03T11:43:40;112171.53;;;-144.33;29.41
19843;BME280;10082;51.038;6.992;2023-04-03T11:46:11;112171.53;;;-144.33;29.17
19843;BME280;10082;51.038;6.992;2023-04-03T11:48:48;112171.53;;;-144.33;28.84
19843;BME280;10082;51.038;6.992;2023-04-03T11:51:44;112171.53;;;-144.33;27.98
19843;BME280;10082;51.038;6.992;2023-04-03T11:57:44;112171.53;;;-144.33;29.62
19843;BME280;10082;51.038;6.992;2023-04-03T12:04:07;112171.53;;;-144.33;29.37
19843;BME280;10082;51.038;6.992;2023-04-03T12:06:50;112171.53;;;-144.33;29.22
19843;BME280;10082;51.038;6.992;2023-04-03T12:09:56;112171.53;;;-144.33;28.21
19843;BME280;10082;51.038;6.992;2023-04-03T12:12:31;112171.53;;;-144.33;27.46
19843;BME280;10082;51.038;6.992;2023-04-03T12:18:58;112171.53;;;-144.33;27.67
19843;BME280;10082;51.038;6.992;2023-04-03T12:24:28;112171.53;;;-144.33;28.00
19843;BME280;10082;51.038;6.992;2023-04-03T12:27:04;112171.53;;;-144.33;28.42
19843;BME280;10082;51.038;6.992;2023-04-03T12:29:39;112171.53;;;-144.33;28.60
19843;BME280;10082;51.038;6.992;2023-04-03T12:32:20;112171.53;;;-144.33;28.08
19843;BME280;10082;51.038;6.992;2023-04-03T12:35:01;112171.53;;;-144.33;28.56
19843;BME280;10082;51.038;6.992;2023-04-03T12:37:54;112171.53;;;-144.33;29.32
19843;BME280;10082;51.038;6.992;2023-04-03T12:40:31;112171.53;;;-144.33;28.77
19843;BME280;10082;51.038;6.992;2023-04-03T12:43:25;112171.53;;;-144.33;28.87
19843;BME280;10082;51.038;6.992;2023-04-03T12:46:02;112171.53;;;-144.33;29.76
19843;BME280;10082;51.038;6.992;2023-04-03T12:48:31;112171.53;;;-144.33;30.11
19843;BME280;10082;51.038;6.992;2023-04-03T12:50:59;112171.53;;;-144.33;29.65
19843;BME280;10082;51.038;6.992;2023-04-03T12:53:31;112171.53;;;-144.33;30.02
19843;BME280;10082;51.038;6.992;2023-04-03T12:56:22;112171.53;;;-144.33;29.87
19843;BME280;10082;51.038;6.992;2023-04-03T12:58:51;112171.53;;;-144.33;29.31
19843;BME280;10082;51.038;6.992;2023-04-03T13:01:21;112171.53;;;-144.33;28.91
19843;BME280;10082;51.038;6.992;2023-04-03T13:03:51;112171.53;;;-144.33;29.34
19843;BME280;10082;51.038;6.992;2023-04-03T13:06:21;112171.53;;;-144.33;29.93
19843;BME280;10082;51.038;6.992;2023-04-03T13:08:51;112171.53;;;-144.33;29.47